sensor_id;sensor_type;location;lat;lon;timestamp;pressure;altitude;pressure_sealevel;temperature;humidity
42601;BME280;28229;48.856;9.088;2023-05-24T00:00:44;98270.69;;;12.08;76.59
42601;BME280;28229;48.856;9.088;2023-05-24T00:03:11;98268.88;;;12.09;76.70
42601;BME280;28229;48.856;9.088;2023-05-24T00:05:40;98266.66;;;12.06;76.88
42601;BME280;28229;48.856;9.088;2023-05-24T00:08:06;98270.53;;;12.03;77.08
42601;BME280;28229;48.856;9.088;2023-05-24T00:10:32;98267.47;;;12.06;76.84
42601;BME280;28229;48.856;9.088;2023-05-24T00:12:58;98263.81;;;12.07;76.87
42601;BME280;28229;48.856;9.088;2023-05-24T00:15:24;98267.47;;;12.06;77.42
42601;BME280;28229;48.856;9.088;2023-05-24T00:17:50;98262.19;;;12.06;76.95
42601;BME280;28229;48.856;9.088;2023-05-24T00:20:17;98263.44;;;12.04;77.18
42601;BME280;28229;48.856;9.088;2023-05-24T00:22:45;98263.09;;;12.00;77.50
42601;BME280;28229;48.856;9.088;2023-05-24T00:25:12;98257.34;;;12.03;77.09
42601;BME280;28229;48.856;9.088;2023-05-24T00:27:38;98258.97;;;12.04;77.14
42601;BME280;28229;48.856;9.088;2023-05-24T00:30:05;98257.50;;;12.08;77.21
42601;BME280;28229;48.856;9.088;2023-05-24T00:32:32;98260.16;;;12.08;77.03
42601;BME280;28229;48.856;9.088;2023-05-24T00:34:58;98254.72;;;12.03;77.03
42601;BME280;28229;48.856;9.088;2023-05-24T00:37:24;98252.06;;;12.03;77.27
42601;BME280;28229;48.856;9.088;2023-05-24T00:39:51;98251.22;;;12.09;76.75
42601;BME280;28229;48.856;9.088;2023-05-24T00:42:17;98249.59;;;12.08;77.08
42601;BME280;28229;48.856;9.088;2023-05-24T00:44:43;98248.00;;;12.07;76.44
42601;BME280;28229;48.856;9.088;2023-05-24T00:47:09;98241.53;;;12.03;75.94
42601;BME280;28229;48.856;9.088;2023-05-24T00:49:35;98247.25;;;12.00;76.13
42601;BME280;28229;48.856;9.088;2023-05-24T00:52:02;98240.00;;;11.95;75.58
42601;BME280;28229;48.856;9.088;2023-05-24T00:54:29;98247.31;;;11.93;75.82
42601;BME280;28229;48.856;9.088;2023-05-24T00:56:56;98245.63;;;11.99;75.19
42601;BME280;28229;48.856;9.088;2023-05-24T00:59:25;98244.47;;;11.95;75.58
42601;BME280;28229;48.856;9.088;2023-05-24T01:01:52;98249.31;;;11.98;75.64
42601;BME280;28229;48.856;9.088;2023-05-24T01:04:20;98245.69;;;11.92;75.72
42601;BME280;28229;48.856;9.088;2023-05-24T01:07:05;98243.13;;;11.86;75.65
42601;BME280;28229;48.856;9.088;2023-05-24T01:18:12;98248.97;;;11.88;74.49
42601;BME280;28229;48.856;9.088;2023-05-24T01:20:41;98245.81;;;11.79;74.66
42601;BME280;28229;48.856;9.088;2023-05-24T01:23:17;98244.56;;;11.81;74.96
42601;BME280;28229;48.856;9.088;2023-05-24T01:26:07;98253.28;;;11.82;74.68
42601;BME280;28229;48.856;9.088;2023-05-24T01:28:40;98247.50;;;11.73;74.26
42601;BME280;28229;48.856;9.088;2023-05-24T01:31:08;98245.00;;;11.78;74.01
42601;BME280;28229;48.856;9.088;2023-05-24T01:33:40;98236.72;;;11.75;74.12
42601;BME280;28229;48.856;9.088;2023-05-24T01:36:06;98235.91;;;11.74;73.60
42601;BME280;28229;48.856;9.088;2023-05-24T01:38:32;98234.47;;;11.78;73.68
42601;BME280;28229;48.856;9.088;2023-05-24T01:41:06;98238.91;;;11.78;74.18
42601;BME280;28229;48.856;9.088;2023-05-24T01:43:39;98245.84;;;11.72;74.93
42601;BME280;28229;48.856;9.088;2023-05-24T01:52:04;98249.31;;;11.48;77.96
42601;BME280;28229;48.856;9.088;2023-05-24T01:54:36;98251.41;;;11.39;78.44
42601;BME280;28229;48.856;9.088;2023-05-24T01:57:07;98253.06;;;11.33;79.29
42601;BME280;28229;48.856;9.088;2023-05-24T01:59:37;98247.03;;;11.26;79.60
42601;BME280;28229;48.856;9.088;2023-05-24T02:02:05;98255.09;;;11.31;80.00
42601;BME280;28229;48.856;9.088;2023-05-24T02:04:31;98263.00;;;11.31;79.71
42601;BME280;28229;48.856;9.088;2023-05-24T02:06:57;98265.94;;;11.23;79.24
42601;BME280;28229;48.856;9.088;2023-05-24T02:09:23;98257.53;;;11.33;80.04
42601;BME280;28229;48.856;9.088;2023-05-24T02:11:50;98258.16;;;11.28;79.90
42601;BME280;28229;48.856;9.088;2023-05-24T02:14:16;98256.81;;;11.19;79.73
42601;BME280;28229;48.856;9.088;2023-05-24T02:16:45;98254.38;;;11.17;79.85
42601;BME280;28229;48.856;9.088;2023-05-24T02:19:12;98259.28;;;11.14;79.66
42601;BME280;28229;48.856;9.088;2023-05-24T02:21:40;98259.28;;;11.14;80.35
42601;BME280;28229;48.856;9.088;2023-05-24T02:24:06;98254.22;;;11.12;79.32
42601;BME280;28229;48.856;9.088;2023-05-24T02:26:32;98261.31;;;11.12;79.80
42601;BME280;28229;48.856;9.088;2023-05-24T02:28:59;98263.31;;;11.16;80.05
42601;BME280;28229;48.856;9.088;2023-05-24T02:31:25;98267.00;;;11.09;79.46
42601;BME280;28229;48.856;9.088;2023-05-24T02:33:54;98271.88;;;11.05;79.70
42601;BME280;28229;48.856;9.088;2023-05-24T02:36:21;98269.56;;;10.83;80.73
42601;BME280;28229;48.856;9.088;2023-05-24T02:38:49;98263.47;;;10.90;80.56
42601;BME280;28229;48.856;9.088;2023-05-24T02:41:16;98261.66;;;10.90;80.09
42601;BME280;28229;48.856;9.088;2023-05-24T02:43:46;98261.81;;;10.95;79.78
42601;BME280;28229;48.856;9.088;2023-05-24T02:46:14;98273.81;;;10.91;80.04
42601;BME280;28229;48.856;9.088;2023-05-24T02:48:40;98267.97;;;10.82;80.23
42601;BME280;28229;48.856;9.088;2023-05-24T02:51:06;98265.13;;;10.84;80.21
42601;BME280;28229;48.856;9.088;2023-05-24T02:53:33;98266.31;;;10.88;79.85
42601;BME280;28229;48.856;9.088;2023-05-24T02:55:59;98265.75;;;10.79;79.80
42601;BME280;28229;48.856;9.088;2023-05-24T02:58:25;98268.78;;;10.83;79.28
42601;BME280;28229;48.856;9.088;2023-05-24T03:00:54;98268.63;;;10.71;79.02
42601;BME280;28229;48.856;9.088;2023-05-24T03:03:20;98261.94;;;10.75;78.88
42601;BME280;28229;48.856;9.088;2023-05-24T03:05:47;98263.91;;;10.80;79.51
42601;BME280;28229;48.856;9.088;2023-05-24T03:08:13;98268.78;;;10.83;79.45
42601;BME280;28229;48.856;9.088;2023-05-24T03:10:40;98262.31;;;10.79;79.09
42601;BME280;28229;48.856;9.088;2023-05-24T03:13:06;98269.63;;;10.77;78.91
42601;BME280;28229;48.856;9.088;2023-05-24T03:15:35;98267.78;;;10.77;79.28
42601;BME280;28229;48.856;9.088;2023-05-24T03:18:02;98265.19;;;10.71;78.82
42601;BME280;28229;48.856;9.088;2023-05-24T03:20:29;98265.16;;;10.77;78.71
42601;BME280;28229;48.856;9.088;2023-05-24T03:22:56;98264.00;;;10.66;79.11
42601;BME280;28229;48.856;9.088;2023-05-24T03:25:23;98263.59;;;10.70;79.08
42601;BME280;28229;48.856;9.088;2023-05-24T03:27:49;98256.88;;;10.74;78.61
42601;BME280;28229;48.856;9.088;2023-05-24T03:30:15;98255.44;;;10.78;78.82
42601;BME280;28229;48.856;9.088;2023-05-24T03:33:01;98267.59;;;10.79;78.88
42601;BME280;28229;48.856;9.088;2023-05-24T03:35:28;98259.50;;;10.74;79.04
42601;BME280;28229;48.856;9.088;2023-05-24T03:37:55;98250.59;;;10.75;78.49
42601;BME280;28229;48.856;9.088;2023-05-24T03:40:24;98255.91;;;10.68;78.87
42601;BME280;28229;48.856;9.088;2023-05-24T03:42:58;98247.34;;;10.73;78.55
42601;BME280;28229;48.856;9.088;2023-05-24T03:45:43;98251.84;;;10.65;79.13
42601;BME280;28229;48.856;9.088;2023-05-24T03:48:09;98253.88;;;10.63;79.14
42601;BME280;28229;48.856;9.088;2023-05-24T03:50:36;98247.44;;;10.59;79.41
42601;BME280;28229;48.856;9.088;2023-05-24T03:53:02;98255.13;;;10.61;78.92
42601;BME280;28229;48.856;9.088;2023-05-24T03:55:28;98253.88;;;10.63;79.43
42601;BME280;28229;48.856;9.088;2023-05-24T03:57:54;98253.09;;;10.63;79.55
42601;BME280;28229;48.856;9.088;2023-05-24T04:00:20;98252.69;;;10.66;79.61
42601;BME280;28229;48.856;9.088;2023-05-24T04:02:48;98253.09;;;10.63;79.75
42601;BME280;28229;48.856;9.088;2023-05-24T04:05:14;98249.03;;;10.60;79.62
42601;BME280;28229;48.856;9.088;2023-05-24T04:07:40;98249.69;;;10.49;80.44
42601;BME280;28229;48.856;9.088;2023-05-24T04:10:08;98246.47;;;10.54;80.18
42601;BME280;28229;48.856;9.088;2023-05-24T04:12:34;98248.25;;;10.53;80.42
42601;BME280;28229;48.856;9.088;2023-05-24T04:15:01;98247.44;;;10.59;80.21
42601;BME280;28229;48.856;9.088;2023-05-24T04:17:29;98248.03;;;10.61;80.76
42601;BME280;28229;48.856;9.088;2023-05-24T04:19:59;98249.03;;;10.60;80.45
42601;BME280;28229;48.856;9.088;2023-05-24T04:22:26;98243.56;;;10.62;80.37
42601;BME280;28229;48.856;9.088;2023-05-24T04:24:52;98247.44;;;10.59;80.61
42601;BME280;28229;48.856;9.088;2023-05-24T04:27:19;98251.84;;;10.65;80.29
42601;BME280;28229;48.856;9.088;2023-05-24T04:29:45;98247.19;;;10.67;80.32
42601;BME280;28229;48.856;9.088;2023-05-24T04:32:15;98247.63;;;10.58;80.21
42601;BME280;28229;48.856;9.088;2023-05-24T04:34:44;98246.19;;;10.62;80.71
42601;BME280;28229;48.856;9.088;2023-05-24T04:37:11;98248.63;;;10.63;80.19
42601;BME280;28229;48.856;9.088;2023-05-24T04:39:44;98259.16;;;10.63;80.63
42601;BME280;28229;48.856;9.088;2023-05-24T04:42:11;98261.97;;;10.62;80.08
42601;BME280;28229;48.856;9.088;2023-05-24T04:44:41;98265.25;;;10.57;80.35
42601;BME280;28229;48.856;9.088;2023-05-24T04:47:07;98274.34;;;10.61;80.46
42601;BME280;28229;48.856;9.088;2023-05-24T04:49:35;98275.34;;;10.60;80.53
42601;BME280;28229;48.856;9.088;2023-05-24T04:52:01;98271.91;;;10.66;80.18
42601;BME280;28229;48.856;9.088;2023-05-24T04:54:27;98270.03;;;10.74;79.89
42601;BME280;28229;48.856;9.088;2023-05-24T04:56:54;98272.91;;;10.65;79.96
42601;BME280;28229;48.856;9.088;2023-05-24T04:59:20;98274.72;;;10.72;79.89
42601;BME280;28229;48.856;9.088;2023-05-24T05:01:46;98275.97;;;10.62;80.20
42601;BME280;28229;48.856;9.088;2023-05-24T05:04:12;98278.59;;;10.62;80.06
42601;BME280;28229;48.856;9.088;2023-05-24T05:06:38;98275.72;;;10.71;79.85
42601;BME280;28229;48.856;9.088;2023-05-24T05:09:06;98279.75;;;10.73;79.32
42601;BME280;28229;48.856;9.088;2023-05-24T05:11:35;98280.59;;;10.67;79.47
42601;BME280;28229;48.856;9.088;2023-05-24T05:14:01;98283.41;;;10.65;79.15
42601;BME280;28229;48.856;9.088;2023-05-24T05:16:27;98288.69;;;10.65;79.07
42601;BME280;28229;48.856;9.088;2023-05-24T05:18:53;98281.38;;;10.67;78.98
42601;BME280;28229;48.856;9.088;2023-05-24T05:21:20;98285.47;;;10.63;78.13
42601;BME280;28229;48.856;9.088;2023-05-24T05:23:46;98274.53;;;10.60;78.62
42601;BME280;28229;48.856;9.088;2023-05-24T05:26:12;98286.66;;;10.67;78.78
42601;BME280;28229;48.856;9.088;2023-05-24T05:28:38;98290.69;;;10.70;78.79
42601;BME280;28229;48.856;9.088;2023-05-24T05:31:04;98281.75;;;10.78;78.48
42601;BME280;28229;48.856;9.088;2023-05-24T05:33:31;98286.19;;;10.84;78.04
42601;BME280;28229;48.856;9.088;2023-05-24T05:35:57;98279.72;;;10.80;77.82
42601;BME280;28229;48.856;9.088;2023-05-24T05:38:23;98272.38;;;10.89;78.06
42601;BME280;28229;48.856;9.088;2023-05-24T05:40:51;98280.84;;;10.97;77.41
42601;BME280;28229;48.856;9.088;2023-05-24T05:43:17;98281.63;;;11.04;77.08
42601;BME280;28229;48.856;9.088;2023-05-24T05:45:43;98272.31;;;11.02;76.23
42601;BME280;28229;48.856;9.088;2023-05-24T05:48:10;98277.31;;;11.10;77.27
42601;BME280;28229;48.856;9.088;2023-05-24T05:50:36;98271.84;;;11.12;77.65
42601;BME280;28229;48.856;9.088;2023-05-24T05:53:02;98270.47;;;11.09;77.02
42601;BME280;28229;48.856;9.088;2023-05-24T05:55:28;98276.69;;;11.15;76.37
42601;BME280;28229;48.856;9.088;2023-05-24T05:57:54;98276.69;;;11.15;76.40
42601;BME280;28229;48.856;9.088;2023-05-24T06:00:21;98276.59;;;11.28;76.96
42601;BME280;28229;48.856;9.088;2023-05-24T06:02:47;98274.25;;;11.20;75.37
42601;BME280;28229;48.856;9.088;2023-05-24T06:05:13;98268.50;;;11.30;76.08
42601;BME280;28229;48.856;9.088;2023-05-24T06:07:39;98272.25;;;11.40;75.39
42601;BME280;28229;48.856;9.088;2023-05-24T06:10:08;98272.59;;;11.51;74.90
42601;BME280;28229;48.856;9.088;2023-05-24T06:12:37;98271.66;;;11.38;75.26
42601;BME280;28229;48.856;9.088;2023-05-24T06:15:06;98271.03;;;11.68;76.31
42601;BME280;28229;48.856;9.088;2023-05-24T06:17:33;98272.22;;;11.72;74.45
42601;BME280;28229;48.856;9.088;2023-05-24T06:19:59;98264.22;;;11.86;74.98
42601;BME280;28229;48.856;9.088;2023-05-24T06:22:25;98274.28;;;11.95;72.65
42601;BME280;28229;48.856;9.088;2023-05-24T06:24:55;98271.56;;;12.02;72.37
42601;BME280;28229;48.856;9.088;2023-05-24T06:27:28;98275.44;;;11.99;71.72
42601;BME280;28229;48.856;9.088;2023-05-24T06:29:55;98275.16;;;12.08;71.82
42601;BME280;28229;48.856;9.088;2023-05-24T06:32:21;98279.22;;;12.10;71.24
42601;BME280;28229;48.856;9.088;2023-05-24T06:34:47;98277.91;;;12.19;70.99
42601;BME280;28229;48.856;9.088;2023-05-24T06:37:13;98279.50;;;12.21;70.60
42601;BME280;28229;48.856;9.088;2023-05-24T06:39:40;98283.19;;;12.19;70.30
42601;BME280;28229;48.856;9.088;2023-05-24T06:42:06;98288.00;;;12.23;70.00
42601;BME280;28229;48.856;9.088;2023-05-24T06:44:35;98288.72;;;12.30;70.59
42601;BME280;28229;48.856;9.088;2023-05-24T06:47:02;98294.16;;;12.35;70.11
42601;BME280;28229;48.856;9.088;2023-05-24T06:49:29;98292.03;;;12.25;69.42
42601;BME280;28229;48.856;9.088;2023-05-24T06:51:55;98296.53;;;12.25;69.07
42601;BME280;28229;48.856;9.088;2023-05-24T06:54:21;98303.59;;;12.06;69.07
42601;BME280;28229;48.856;9.088;2023-05-24T06:56:47;98298.78;;;11.96;69.48
42601;BME280;28229;48.856;9.088;2023-05-24T06:59:14;98311.44;;;11.87;69.94
42601;BME280;28229;48.856;9.088;2023-05-24T07:01:40;98316.34;;;11.84;70.09
42601;BME280;28229;48.856;9.088;2023-05-24T07:04:08;98321.28;;;11.73;70.53
42601;BME280;28229;48.856;9.088;2023-05-24T07:06:35;98319.59;;;11.54;71.27
42601;BME280;28229;48.856;9.088;2023-05-24T07:09:03;98323.00;;;11.61;70.90
42601;BME280;28229;48.856;9.088;2023-05-24T07:11:30;98322.13;;;11.67;71.11
42601;BME280;28229;48.856;9.088;2023-05-24T07:13:57;98328.28;;;11.61;71.28
42601;BME280;28229;48.856;9.088;2023-05-24T07:16:23;98332.25;;;11.70;71.66
42601;BME280;28229;48.856;9.088;2023-05-24T07:18:49;98330.63;;;11.69;71.07
42601;BME280;28229;48.856;9.088;2023-05-24T07:21:15;98337.13;;;11.67;71.00
42601;BME280;28229;48.856;9.088;2023-05-24T07:23:41;98331.50;;;11.63;70.28
42601;BME280;28229;48.856;9.088;2023-05-24T07:26:08;98346.00;;;11.72;70.70
42601;BME280;28229;48.856;9.088;2023-05-24T07:28:34;98339.06;;;11.78;70.20
42601;BME280;28229;48.856;9.088;2023-05-24T07:31:07;98342.38;;;11.73;69.72
42601;BME280;28229;48.856;9.088;2023-05-24T07:33:35;98345.81;;;11.74;70.00
42601;BME280;28229;48.856;9.088;2023-05-24T07:36:04;98347.09;;;11.90;69.43
42601;BME280;28229;48.856;9.088;2023-05-24T07:38:30;98347.50;;;11.93;70.18
42601;BME280;28229;48.856;9.088;2023-05-24T07:41:01;98345.84;;;11.99;69.66
42601;BME280;28229;48.856;9.088;2023-05-24T07:43:28;98344.47;;;12.15;70.09
42601;BME280;28229;48.856;9.088;2023-05-24T07:45:55;98342.22;;;12.18;68.81
42601;BME280;28229;48.856;9.088;2023-05-24T07:48:22;98346.47;;;12.19;68.73
42601;BME280;28229;48.856;9.088;2023-05-24T07:50:49;98340.09;;;12.09;68.21
42601;BME280;28229;48.856;9.088;2023-05-24T07:53:17;98350.56;;;12.15;67.85
42601;BME280;28229;48.856;9.088;2023-05-24T07:55:45;98346.03;;;12.23;68.20
42601;BME280;28229;48.856;9.088;2023-05-24T07:58:11;98354.56;;;12.25;68.10
42601;BME280;28229;48.856;9.088;2023-05-24T08:00:37;98359.97;;;12.30;68.42
42601;BME280;28229;48.856;9.088;2023-05-24T08:03:04;98363.25;;;12.25;68.21
42601;BME280;28229;48.856;9.088;2023-05-24T08:05:30;98364.66;;;12.28;68.10
42601;BME280;28229;48.856;9.088;2023-05-24T08:07:57;98363.22;;;12.32;68.17
42601;BME280;28229;48.856;9.088;2023-05-24T08:10:23;98369.91;;;12.28;67.69
42601;BME280;28229;48.856;9.088;2023-05-24T08:12:50;98374.44;;;12.21;67.47
42601;BME280;28229;48.856;9.088;2023-05-24T08:15:21;98367.13;;;12.23;67.41
42601;BME280;28229;48.856;9.088;2023-05-24T08:17:47;98366.66;;;12.07;67.67
42601;BME280;28229;48.856;9.088;2023-05-24T08:20:14;98372.03;;;12.19;67.29
42601;BME280;28229;48.856;9.088;2023-05-24T08:22:42;98370.38;;;12.25;67.41
42601;BME280;28229;48.856;9.088;2023-05-24T08:25:09;98367.13;;;12.23;67.86
42601;BME280;28229;48.856;9.088;2023-05-24T08:27:36;98369.50;;;12.31;66.02
42601;BME280;28229;48.856;9.088;2023-05-24T08:30:02;98365.09;;;12.25;65.78
42601;BME280;28229;48.856;9.088;2023-05-24T08:32:29;98375.50;;;12.38;66.60
42601;BME280;28229;48.856;9.088;2023-05-24T08:34:55;98370.19;;;12.63;67.65
42601;BME280;28229;48.856;9.088;2023-05-24T08:37:22;98376.28;;;12.82;65.96
42601;BME280;28229;48.856;9.088;2023-05-24T08:39:48;98381.75;;;12.99;65.46
42601;BME280;28229;48.856;9.088;2023-05-24T08:42:15;98373.19;;;13.04;65.00
42601;BME280;28229;48.856;9.088;2023-05-24T08:44:46;98374.69;;;13.11;64.81
42601;BME280;28229;48.856;9.088;2023-05-24T08:47:14;98382.34;;;13.20;63.34
42601;BME280;28229;48.856;9.088;2023-05-24T08:49:40;98386.81;;;13.19;63.04
42601;BME280;28229;48.856;9.088;2023-05-24T08:52:07;98386.00;;;13.19;64.00
42601;BME280;28229;48.856;9.088;2023-05-24T08:54:36;98382.47;;;13.06;63.72
42601;BME280;28229;48.856;9.088;2023-05-24T08:57:03;98382.69;;;13.23;64.29
42601;BME280;28229;48.856;9.088;2023-05-24T08:59:29;98385.72;;;13.08;63.97
42601;BME280;28229;48.856;9.088;2023-05-24T09:01:56;98383.34;;;13.19;63.99
42601;BME280;28229;48.856;9.088;2023-05-24T09:04:26;98381.63;;;13.12;62.57
42601;BME280;28229;48.856;9.088;2023-05-24T09:06:53;98383.81;;;13.16;62.74
42601;BME280;28229;48.856;9.088;2023-05-24T09:09:20;98380.34;;;13.15;62.60
42601;BME280;28229;48.856;9.088;2023-05-24T09:11:48;98386.34;;;13.22;63.76
42601;BME280;28229;48.856;9.088;2023-05-24T09:14:16;98380.41;;;13.27;62.95
42601;BME280;28229;48.856;9.088;2023-05-24T09:16:43;98370.81;;;13.32;63.53
42601;BME280;28229;48.856;9.088;2023-05-24T09:19:09;98377.72;;;13.33;62.94
42601;BME280;28229;48.856;9.088;2023-05-24T09:21:36;98377.84;;;13.39;63.00
42601;BME280;28229;48.856;9.088;2023-05-24T09:24:06;98381.53;;;13.38;62.50
42601;BME280;28229;48.856;9.088;2023-05-24T09:26:35;98380.94;;;13.36;62.07
42601;BME280;28229;48.856;9.088;2023-05-24T09:29:05;98380.94;;;13.36;61.00
42601;BME280;28229;48.856;9.088;2023-05-24T09:31:36;98391.66;;;13.41;62.16
42601;BME280;28229;48.856;9.088;2023-05-24T09:34:02;98390.25;;;13.38;62.72
42601;BME280;28229;48.856;9.088;2023-05-24T09:36:28;98390.59;;;13.42;62.25
42601;BME280;28229;48.856;9.088;2023-05-24T09:39:06;98390.59;;;13.42;62.17
42601;BME280;28229;48.856;9.088;2023-05-24T09:41:36;98392.44;;;13.41;62.13
42601;BME280;28229;48.856;9.088;2023-05-24T09:44:03;98392.44;;;13.41;62.11
42601;BME280;28229;48.856;9.088;2023-05-24T09:46:34;98395.16;;;13.35;63.00
42601;BME280;28229;48.856;9.088;2023-05-24T09:49:01;98394.06;;;13.24;63.30
42601;BME280;28229;48.856;9.088;2023-05-24T09:51:36;98404.56;;;13.30;62.86
42601;BME280;28229;48.856;9.088;2023-05-24T09:54:04;98392.81;;;13.45;62.63
42601;BME280;28229;48.856;9.088;2023-05-24T09:56:33;98390.94;;;13.33;61.99
42601;BME280;28229;48.856;9.088;2023-05-24T09:59:07;98391.50;;;13.36;62.50
42601;BME280;28229;48.856;9.088;2023-05-24T10:01:34;98387.53;;;13.26;61.98
42601;BME280;28229;48.856;9.088;2023-05-24T10:04:01;98387.97;;;13.23;62.38
42601;BME280;28229;48.856;9.088;2023-05-24T10:06:30;98396.44;;;13.32;63.25
42601;BME280;28229;48.856;9.088;2023-05-24T10:09:00;98387.06;;;13.48;63.30
42601;BME280;28229;48.856;9.088;2023-05-24T10:11:27;98384.22;;;13.49;62.39
42601;BME280;28229;48.856;9.088;2023-05-24T10:13:53;98387.75;;;13.43;62.74
42601;BME280;28229;48.856;9.088;2023-05-24T10:16:20;98395.63;;;13.31;62.02
42601;BME280;28229;48.856;9.088;2023-05-24T10:18:46;98399.88;;;13.32;62.60
42601;BME280;28229;48.856;9.088;2023-05-24T10:21:12;98399.22;;;13.37;61.84
42601;BME280;28229;48.856;9.088;2023-05-24T10:23:42;98387.97;;;13.42;62.27
42601;BME280;28229;48.856;9.088;2023-05-24T10:26:11;98378.13;;;13.30;61.81
42601;BME280;28229;48.856;9.088;2023-05-24T10:28:41;98378.56;;;13.27;61.76
42601;BME280;28229;48.856;9.088;2023-05-24T10:31:11;98383.28;;;13.25;61.68
42601;BME280;28229;48.856;9.088;2023-05-24T10:33:43;98376.91;;;13.33;61.74
42601;BME280;28229;48.856;9.088;2023-05-24T10:36:12;98378.44;;;13.41;61.31
42601;BME280;28229;48.856;9.088;2023-05-24T10:38:39;98373.38;;;13.51;60.69
42601;BME280;28229;48.856;9.088;2023-05-24T10:41:06;98376.16;;;13.56;60.25
42601;BME280;28229;48.856;9.088;2023-05-24T10:43:34;98380.44;;;13.57;59.82
42601;BME280;28229;48.856;9.088;2023-05-24T10:46:04;98371.72;;;13.57;59.14
42601;BME280;28229;48.856;9.088;2023-05-24T10:48:34;98372.88;;;13.61;59.87
42601;BME280;28229;48.856;9.088;2023-05-24T10:51:28;98374.00;;;13.65;58.73
42601;BME280;28229;48.856;9.088;2023-05-24T10:54:18;98374.09;;;13.58;57.21
42601;BME280;28229;48.856;9.088;2023-05-24T10:56:49;98377.59;;;13.70;57.60
42601;BME280;28229;48.856;9.088;2023-05-24T10:59:23;98377.78;;;13.99;57.31
42601;BME280;28229;48.856;9.088;2023-05-24T11:01:59;98373.63;;;14.15;56.60
42601;BME280;28229;48.856;9.088;2023-05-24T11:04:30;98368.00;;;14.35;56.47
42601;BME280;28229;48.856;9.088;2023-05-24T11:07:01;98363.72;;;14.81;55.44
42601;BME280;28229;48.856;9.088;2023-05-24T11:09:28;98361.34;;;15.09;52.21
42601;BME280;28229;48.856;9.088;2023-05-24T11:11:59;98359.44;;;15.21;51.40
42601;BME280;28229;48.856;9.088;2023-05-24T11:14:29;98352.47;;;15.60;52.05
42601;BME280;28229;48.856;9.088;2023-05-24T11:16:57;98355.00;;;15.84;50.34
42601;BME280;28229;48.856;9.088;2023-05-24T11:19:35;98358.06;;;15.93;50.28
42601;BME280;28229;48.856;9.088;2023-05-24T11:22:05;98354.44;;;15.82;48.76
42601;BME280;28229;48.856;9.088;2023-05-24T11:24:32;98358.78;;;15.88;48.81
42601;BME280;28229;48.856;9.088;2023-05-24T11:27:00;98358.94;;;15.98;47.81
42601;BME280;28229;48.856;9.088;2023-05-24T11:29:28;98351.06;;;16.04;48.61
42601;BME280;28229;48.856;9.088;2023-05-24T11:31:59;98356.84;;;16.01;48.56
42601;BME280;28229;48.856;9.088;2023-05-24T11:34:32;98346.84;;;16.42;48.34
42601;BME280;28229;48.856;9.088;2023-05-24T11:37:00;98347.69;;;16.86;47.37
42601;BME280;28229;48.856;9.088;2023-05-24T11:39:33;98343.72;;;17.38;47.01
42601;BME280;28229;48.856;9.088;2023-05-24T11:42:03;98345.09;;;17.73;45.19
42601;BME280;28229;48.856;9.088;2023-05-24T11:44:31;98338.41;;;17.98;44.22
42601;BME280;28229;48.856;9.088;2023-05-24T11:47:01;98335.47;;;18.37;44.09
42601;BME280;28229;48.856;9.088;2023-05-24T11:49:28;98335.94;;;18.29;43.31
42601;BME280;28229;48.856;9.088;2023-05-24T11:51:56;98333.63;;;18.42;43.09
42601;BME280;28229;48.856;9.088;2023-05-24T11:54:26;98328.66;;;18.61;41.93
42601;BME280;28229;48.856;9.088;2023-05-24T11:56:53;98322.25;;;18.62;41.63
42601;BME280;28229;48.856;9.088;2023-05-24T11:59:22;98328.16;;;18.64;41.96
42601;BME280;28229;48.856;9.088;2023-05-24T12:01:55;98327.38;;;18.74;41.61
42601;BME280;28229;48.856;9.088;2023-05-24T12:04:21;98319.75;;;19.03;39.66
42601;BME280;28229;48.856;9.088;2023-05-24T12:06:47;98326.78;;;19.25;40.52
42601;BME280;28229;48.856;9.088;2023-05-24T12:09:14;98318.25;;;19.38;40.91
42601;BME280;28229;48.856;9.088;2023-05-24T12:11:41;98323.06;;;19.67;40.76
42601;BME280;28229;48.856;9.088;2023-05-24T12:14:11;98318.78;;;19.46;39.44
42601;BME280;28229;48.856;9.088;2023-05-24T12:16:38;98311.28;;;19.22;40.22
42601;BME280;28229;48.856;9.088;2023-05-24T12:19:05;98313.28;;;18.79;41.61
42601;BME280;28229;48.856;9.088;2023-05-24T12:21:32;98311.91;;;18.71;42.08
42601;BME280;28229;48.856;9.088;2023-05-24T12:24:07;98309.31;;;18.87;40.58
42601;BME280;28229;48.856;9.088;2023-05-24T12:26:36;98298.47;;;19.19;39.96
42601;BME280;28229;48.856;9.088;2023-05-24T12:29:05;98305.97;;;19.32;39.86
42601;BME280;28229;48.856;9.088;2023-05-24T12:31:33;98307.84;;;19.63;39.99
42601;BME280;28229;48.856;9.088;2023-05-24T12:33:59;98300.38;;;19.90;38.88
42601;BME280;28229;48.856;9.088;2023-05-24T12:36:27;98309.19;;;19.65;39.04
42601;BME280;28229;48.856;9.088;2023-05-24T12:38:57;98305.47;;;19.66;39.47
42601;BME280;28229;48.856;9.088;2023-05-24T12:41:24;98308.13;;;19.61;39.88
42601;BME280;28229;48.856;9.088;2023-05-24T12:43:50;98294.78;;;19.56;40.12
42601;BME280;28229;48.856;9.088;2023-05-24T12:46:17;98293.94;;;20.02;39.04
42601;BME280;28229;48.856;9.088;2023-05-24T12:48:43;98287.22;;;20.30;38.19
42601;BME280;28229;48.856;9.088;2023-05-24T12:51:10;98286.66;;;20.43;37.02
42601;BME280;28229;48.856;9.088;2023-05-24T12:53:36;98286.03;;;20.57;36.49
42601;BME280;28229;48.856;9.088;2023-05-24T12:56:03;98281.78;;;20.61;35.04
42601;BME280;28229;48.856;9.088;2023-05-24T12:58:29;98283.38;;;20.51;34.07
42601;BME280;28229;48.856;9.088;2023-05-24T13:00:55;98288.69;;;20.77;34.57
42601;BME280;28229;48.856;9.088;2023-05-24T13:03:21;98280.69;;;20.72;34.97
42601;BME280;28229;48.856;9.088;2023-05-24T13:05:47;98279.03;;;20.76;34.82
42601;BME280;28229;48.856;9.088;2023-05-24T13:08:14;98280.97;;;21.15;35.48
42601;BME280;28229;48.856;9.088;2023-05-24T13:10:41;98281.91;;;20.90;34.99
42601;BME280;28229;48.856;9.088;2023-05-24T13:13:07;98282.84;;;20.54;35.86
42601;BME280;28229;48.856;9.088;2023-05-24T13:15:33;98281.31;;;20.33;37.18
42601;BME280;28229;48.856;9.088;2023-05-24T13:17:59;98277.28;;;20.41;35.74